sensor_id;sensor_type;location;lat;lon;timestamp;temperature;humidity
12926;DHT22;6529;50.566;9.774;2023-04-06T00:01:20;1.30;99.90
12926;DHT22;6529;50.566;9.774;2023-04-06T00:03:46;1.20;99.90
12926;DHT22;6529;50.566;9.774;2023-04-06T00:06:11;1.10;99.90
12926;DHT22;6529;50.566;9.774;2023-04-06T00:08:37;1.10;99.90
12926;DHT22;6529;50.566;9.774;2023-04-06T00:11:02;1.10;99.90
12926;DHT22;6529;50.566;9.774;2023-04-06T00:13:28;1.10;99.90
12926;DHT22;6529;50.566;9.774;2023-04-06T00:15:54;1.10;99.90
12926;DHT22;6529;50.566;9.774;2023-04-06T00:18:19;1.10;99.90
12926;DHT22;6529;50.566;9.774;2023-04-06T00:20:45;1.20;99.90
12926;DHT22;6529;50.566;9.774;2023-04-06T00:23:11;1.20;99.90
12926;DHT22;6529;50.566;9.774;2023-04-06T00:25:36;1.20;99.90
12926;DHT22;6529;50.566;9.774;2023-04-06T00:28:02;1.10;99.90
12926;DHT22;6529;50.566;9.774;2023-04-06T00:30:28;1.10;99.90
12926;DHT22;6529;50.566;9.774;2023-04-06T00:32:54;1.10;99.90
12926;DHT22;6529;50.566;9.774;2023-04-06T00:35:21;1.10;99.90
12926;DHT22;6529;50.566;9.774;2023-04-06T00:37:47;1.10;99.90
12926;DHT22;6529;50.566;9.774;2023-04-06T00:40:13;1.00;99.90
12926;DHT22;6529;50.566;9.774;2023-04-06T00:42:39;0.90;99.90
12926;DHT22;6529;50.566;9.774;2023-04-06T00:45:05;0.80;99.90
12926;DHT22;6529;50.566;9.774;2023-04-06T00:47:31;0.70;99.90
12926;DHT22;6529;50.566;9.774;2023-04-06T00:49:56;0.60;99.90
12926;DHT22;6529;50.566;9.774;2023-04-06T00:52:22;0.70;99.90
12926;DHT22;6529;50.566;9.774;2023-04-06T00:54:49;0.60;99.90
12926;DHT22;6529;50.566;9.774;2023-04-06T00:57:15;0.60;99.90
12926;DHT22;6529;50.566;9.774;2023-04-06T00:59:41;0.70;99.90
12926;DHT22;6529;50.566;9.774;2023-04-06T01:02:06;0.70;99.90
12926;DHT22;6529;50.566;9.774;2023-04-06T01:04:33;0.70;99.90
12926;DHT22;6529;50.566;9.774;2023-04-06T01:06:59;0.70;99.90
12926;DHT22;6529;50.566;9.774;2023-04-06T01:09:24;0.60;99.90
12926;DHT22;6529;50.566;9.774;2023-04-06T01:11:50;0.60;99.90
12926;DHT22;6529;50.566;9.774;2023-04-06T01:14:16;0.60;99.90
12926;DHT22;6529;50.566;9.774;2023-04-06T01:16:42;0.60;99.90
12926;DHT22;6529;50.566;9.774;2023-04-06T01:19:09;0.60;99.90
12926;DHT22;6529;50.566;9.774;2023-04-06T01:21:36;0.60;99.90
12926;DHT22;6529;50.566;9.774;2023-04-06T01:24:01;0.60;99.90
12926;DHT22;6529;50.566;9.774;2023-04-06T01:26:27;0.60;99.90
12926;DHT22;6529;50.566;9.774;2023-04-06T01:28:55;0.60;99.90
12926;DHT22;6529;50.566;9.774;2023-04-06T01:31:21;0.60;99.90
12926;DHT22;6529;50.566;9.774;2023-04-06T01:33:47;0.40;99.90
12926;DHT22;6529;50.566;9.774;2023-04-06T01:36:12;0.40;99.90
12926;DHT22;6529;50.566;9.774;2023-04-06T01:38:38;0.30;99.90
12926;DHT22;6529;50.566;9.774;2023-04-06T01:41:03;0.30;99.90
12926;DHT22;6529;50.566;9.774;2023-04-06T01:43:29;0.40;99.90
12926;DHT22;6529;50.566;9.774;2023-04-06T01:45:55;0.40;99.90
12926;DHT22;6529;50.566;9.774;2023-04-06T01:48:20;0.40;99.90
12926;DHT22;6529;50.566;9.774;2023-04-06T01:50:46;0.30;99.90
12926;DHT22;6529;50.566;9.774;2023-04-06T01:53:11;0.30;99.90
12926;DHT22;6529;50.566;9.774;2023-04-06T01:55:37;0.30;99.90
12926;DHT22;6529;50.566;9.774;2023-04-06T01:58:03;0.40;99.90
12926;DHT22;6529;50.566;9.774;2023-04-06T02:00:28;0.50;99.90
12926;DHT22;6529;50.566;9.774;2023-04-06T02:02:54;0.30;99.90
12926;DHT22;6529;50.566;9.774;2023-04-06T02:05:20;0.20;99.90
12926;DHT22;6529;50.566;9.774;2023-04-06T02:07:45;0.20;99.90
12926;DHT22;6529;50.566;9.774;2023-04-06T02:10:14;0.20;99.90
12926;DHT22;6529;50.566;9.774;2023-04-06T02:12:40;0.20;99.90
12926;DHT22;6529;50.566;9.774;2023-04-06T02:15:06;0.20;99.90
12926;DHT22;6529;50.566;9.774;2023-04-06T02:17:31;0.20;99.90
12926;DHT22;6529;50.566;9.774;2023-04-06T02:19:57;0.10;99.90
12926;DHT22;6529;50.566;9.774;2023-04-06T02:22:23;0.10;99.90
12926;DHT22;6529;50.566;9.774;2023-04-06T02:24:48;0.10;99.90
12926;DHT22;6529;50.566;9.774;2023-04-06T02:27:14;0.10;99.90
12926;DHT22;6529;50.566;9.774;2023-04-06T02:29:40;0.10;99.90
12926;DHT22;6529;50.566;9.774;2023-04-06T02:32:06;0.00;99.90
12926;DHT22;6529;50.566;9.774;2023-04-06T02:34:32;0.10;99.90
12926;DHT22;6529;50.566;9.774;2023-04-06T02:36:58;0.10;99.90
12926;DHT22;6529;50.566;9.774;2023-04-06T02:39:23;0.10;99.90
12926;DHT22;6529;50.566;9.774;2023-04-06T02:41:49;0.00;99.90
12926;DHT22;6529;50.566;9.774;2023-04-06T02:44:15;-0.10;99.90
12926;DHT22;6529;50.566;9.774;2023-04-06T02:46:41;-0.10;99.90
12926;DHT22;6529;50.566;9.774;2023-04-06T02:49:06;-0.20;99.90
12926;DHT22;6529;50.566;9.774;2023-04-06T02:51:32;-0.20;99.90
12926;DHT22;6529;50.566;9.774;2023-04-06T02:53:58;-0.20;99.90
12926;DHT22;6529;50.566;9.774;2023-04-06T02:56:24;-0.30;99.90
12926;DHT22;6529;50.566;9.774;2023-04-06T02:58:50;-0.40;99.90
12926;DHT22;6529;50.566;9.774;2023-04-06T03:01:16;-0.40;99.90
12926;DHT22;6529;50.566;9.774;2023-04-06T03:03:42;-0.40;99.90
12926;DHT22;6529;50.566;9.774;2023-04-06T03:06:07;-0.40;99.90
12926;DHT22;6529;50.566;9.774;2023-04-06T03:08:33;-0.40;99.90
12926;DHT22;6529;50.566;9.774;2023-04-06T03:10:58;-0.40;99.90
12926;DHT22;6529;50.566;9.774;2023-04-06T03:13:24;-0.40;99.90
12926;DHT22;6529;50.566;9.774;2023-04-06T03:15:50;-0.40;99.90
12926;DHT22;6529;50.566;9.774;2023-04-06T03:18:20;-0.40;99.90
12926;DHT22;6529;50.566;9.774;2023-04-06T03:20:46;-0.50;99.90
12926;DHT22;6529;50.566;9.774;2023-04-06T03:23:12;-0.50;99.90
12926;DHT22;6529;50.566;9.774;2023-04-06T03:25:38;-0.40;99.90
12926;DHT22;6529;50.566;9.774;2023-04-06T03:28:05;-0.50;99.90
12926;DHT22;6529;50.566;9.774;2023-04-06T03:30:30;-0.50;99.90
12926;DHT22;6529;50.566;9.774;2023-04-06T03:32:56;-0.60;99.90
12926;DHT22;6529;50.566;9.774;2023-04-06T03:35:21;-0.60;99.90
12926;DHT22;6529;50.566;9.774;2023-04-06T03:37:47;-0.70;99.90
12926;DHT22;6529;50.566;9.774;2023-04-06T03:40:13;-0.60;99.90
12926;DHT22;6529;50.566;9.774;2023-04-06T03:42:38;-0.60;99.90
12926;DHT22;6529;50.566;9.774;2023-04-06T03:45:05;-0.60;99.90
12926;DHT22;6529;50.566;9.774;2023-04-06T03:47:30;-0.50;99.90
12926;DHT22;6529;50.566;9.774;2023-04-06T03:49:56;-0.50;99.90
12926;DHT22;6529;50.566;9.774;2023-04-06T03:52:22;-0.50;99.90
12926;DHT22;6529;50.566;9.774;2023-04-06T03:54:48;-0.50;99.90
12926;DHT22;6529;50.566;9.774;2023-04-06T03:57:14;-0.60;99.90
12926;DHT22;6529;50.566;9.774;2023-04-06T03:59:40;-0.60;99.90
12926;DHT22;6529;50.566;9.774;2023-04-06T04:02:05;-0.50;99.90
12926;DHT22;6529;50.566;9.774;2023-04-06T04:04:31;-0.50;99.90
12926;DHT22;6529;50.566;9.774;2023-04-06T04:06:56;-0.60;99.90
12926;DHT22;6529;50.566;9.774;2023-04-06T04:09:22;-0.50;99.90
12926;DHT22;6529;50.566;9.774;2023-04-06T04:11:48;-0.50;99.90
12926;DHT22;6529;50.566;9.774;2023-04-06T04:14:13;-0.60;99.90
12926;DHT22;6529;50.566;9.774;2023-04-06T04:16:39;-0.50;99.90
12926;DHT22;6529;50.566;9.774;2023-04-06T04:19:06;-0.60;99.90
12926;DHT22;6529;50.566;9.774;2023-04-06T04:21:32;-0.50;99.90
12926;DHT22;6529;50.566;9.774;2023-04-06T04:23:57;-0.60;99.90
12926;DHT22;6529;50.566;9.774;2023-04-06T04:26:23;-0.70;99.90
12926;DHT22;6529;50.566;9.774;2023-04-06T04:28:49;-0.70;99.90
12926;DHT22;6529;50.566;9.774;2023-04-06T04:31:14;-0.70;99.90
12926;DHT22;6529;50.566;9.774;2023-04-06T04:33:42;-0.70;99.90
12926;DHT22;6529;50.566;9.774;2023-04-06T04:36:08;-0.80;99.90
12926;DHT22;6529;50.566;9.774;2023-04-06T04:38:34;-0.80;99.90
12926;DHT22;6529;50.566;9.774;2023-04-06T04:40:59;-0.80;99.90
12926;DHT22;6529;50.566;9.774;2023-04-06T04:43:25;-0.90;99.90
12926;DHT22;6529;50.566;9.774;2023-04-06T04:45:51;-0.90;99.90
12926;DHT22;6529;50.566;9.774;2023-04-06T04:48:17;-0.80;99.90
12926;DHT22;6529;50.566;9.774;2023-04-06T04:50:43;-0.80;99.90
12926;DHT22;6529;50.566;9.774;2023-04-06T04:53:08;-0.90;99.90
12926;DHT22;6529;50.566;9.774;2023-04-06T04:55:34;-0.90;99.90
12926;DHT22;6529;50.566;9.774;2023-04-06T04:58:00;-1.00;99.90
12926;DHT22;6529;50.566;9.774;2023-04-06T05:00:26;-1.10;99.90
12926;DHT22;6529;50.566;9.774;2023-04-06T05:02:51;-1.10;99.90
12926;DHT22;6529;50.566;9.774;2023-04-06T05:05:17;-1.20;99.90
12926;DHT22;6529;50.566;9.774;2023-04-06T05:07:43;-1.10;99.90
12926;DHT22;6529;50.566;9.774;2023-04-06T05:10:08;-1.10;99.90
12926;DHT22;6529;50.566;9.774;2023-04-06T05:12:34;-1.00;99.90
12926;DHT22;6529;50.566;9.774;2023-04-06T05:15:00;-1.00;99.90
12926;DHT22;6529;50.566;9.774;2023-04-06T05:17:26;-1.20;99.90
12926;DHT22;6529;50.566;9.774;2023-04-06T05:19:52;-1.20;99.90
12926;DHT22;6529;50.566;9.774;2023-04-06T05:22:17;-1.10;99.90
12926;DHT22;6529;50.566;9.774;2023-04-06T05:24:43;-1.10;99.90
12926;DHT22;6529;50.566;9.774;2023-04-06T05:27:09;-1.10;99.90
12926;DHT22;6529;50.566;9.774;2023-04-06T05:29:35;-1.10;99.90
12926;DHT22;6529;50.566;9.774;2023-04-06T05:32:01;-1.10;99.90
12926;DHT22;6529;50.566;9.774;2023-04-06T05:34:27;-1.10;99.90
12926;DHT22;6529;50.566;9.774;2023-04-06T05:36:52;-1.00;99.90
12926;DHT22;6529;50.566;9.774;2023-04-06T05:39:18;-1.00;99.90
12926;DHT22;6529;50.566;9.774;2023-04-06T05:41:44;-0.90;99.90
12926;DHT22;6529;50.566;9.774;2023-04-06T05:44:09;-0.80;99.90
12926;DHT22;6529;50.566;9.774;2023-04-06T05:46:35;-0.80;99.90
12926;DHT22;6529;50.566;9.774;2023-04-06T05:49:01;-0.80;99.90
12926;DHT22;6529;50.566;9.774;2023-04-06T05:51:26;-0.80;99.90
12926;DHT22;6529;50.566;9.774;2023-04-06T05:53:52;-0.80;99.90
12926;DHT22;6529;50.566;9.774;2023-04-06T05:56:18;-0.70;99.90
12926;DHT22;6529;50.566;9.774;2023-04-06T05:58:44;-0.50;99.90
12926;DHT22;6529;50.566;9.774;2023-04-06T06:01:09;-0.40;99.90
12926;DHT22;6529;50.566;9.774;2023-04-06T06:03:35;-0.30;99.90
12926;DHT22;6529;50.566;9.774;2023-04-06T06:06:02;-0.20;99.90
12926;DHT22;6529;50.566;9.774;2023-04-06T06:08:28;-0.30;99.90
12926;DHT22;6529;50.566;9.774;2023-04-06T06:10:54;-0.30;99.90
12926;DHT22;6529;50.566;9.774;2023-04-06T06:13:20;-0.30;99.90
12926;DHT22;6529;50.566;9.774;2023-04-06T06:15:47;-0.20;99.90
12926;DHT22;6529;50.566;9.774;2023-04-06T06:18:12;-0.30;99.90
12926;DHT22;6529;50.566;9.774;2023-04-06T06:20:38;-0.30;99.90
12926;DHT22;6529;50.566;9.774;2023-04-06T06:23:04;-0.30;99.90
12926;DHT22;6529;50.566;9.774;2023-04-06T06:25:29;-0.30;99.90
12926;DHT22;6529;50.566;9.774;2023-04-06T06:27:58;-0.20;99.90
12926;DHT22;6529;50.566;9.774;2023-04-06T06:30:24;-0.10;99.90
12926;DHT22;6529;50.566;9.774;2023-04-06T06:32:50;0.00;99.90
12926;DHT22;6529;50.566;9.774;2023-04-06T06:35:16;0.20;99.90
12926;DHT22;6529;50.566;9.774;2023-04-06T06:37:41;0.20;99.90
12926;DHT22;6529;50.566;9.774;2023-04-06T06:40:08;0.30;99.90
12926;DHT22;6529;50.566;9.774;2023-04-06T06:42:34;0.40;99.90
12926;DHT22;6529;50.566;9.774;2023-04-06T06:45:00;0.40;99.90
12926;DHT22;6529;50.566;9.774;2023-04-06T06:47:25;0.60;99.90
12926;DHT22;6529;50.566;9.774;2023-04-06T06:49:51;0.70;99.90
12926;DHT22;6529;50.566;9.774;2023-04-06T06:52:17;0.90;99.90
12926;DHT22;6529;50.566;9.774;2023-04-06T06:54:42;1.00;99.90
12926;DHT22;6529;50.566;9.774;2023-04-06T06:57:09;1.10;99.90
12926;DHT22;6529;50.566;9.774;2023-04-06T06:59:34;1.20;99.90
12926;DHT22;6529;50.566;9.774;2023-04-06T07:02:00;1.80;99.90
12926;DHT22;6529;50.566;9.774;2023-04-06T07:04:25;2.40;99.90
12926;DHT22;6529;50.566;9.774;2023-04-06T07:06:51;2.60;99.90
12926;DHT22;6529;50.566;9.774;2023-04-06T07:09:18;2.60;99.90
12926;DHT22;6529;50.566;9.774;2023-04-06T07:11:44;2.40;99.90
12926;DHT22;6529;50.566;9.774;2023-04-06T07:14:09;2.30;99.90
12926;DHT22;6529;50.566;9.774;2023-04-06T07:16:37;2.20;99.90
12926;DHT22;6529;50.566;9.774;2023-04-06T07:19:02;2.20;99.90
12926;DHT22;6529;50.566;9.774;2023-04-06T07:21:28;2.30;99.90
12926;DHT22;6529;50.566;9.774;2023-04-06T07:23:54;2.30;99.90
12926;DHT22;6529;50.566;9.774;2023-04-06T07:26:19;2.50;99.90
12926;DHT22;6529;50.566;9.774;2023-04-06T07:28:45;2.60;99.90
12926;DHT22;6529;50.566;9.774;2023-04-06T07:31:11;2.70;99.90
12926;DHT22;6529;50.566;9.774;2023-04-06T07:33:37;2.90;99.90
12926;DHT22;6529;50.566;9.774;2023-04-06T07:36:02;3.00;99.90
12926;DHT22;6529;50.566;9.774;2023-04-06T07:38:28;3.20;99.90
12926;DHT22;6529;50.566;9.774;2023-04-06T07:40:53;3.40;99.90
12926;DHT22;6529;50.566;9.774;2023-04-06T07:43:19;3.50;99.90
12926;DHT22;6529;50.566;9.774;2023-04-06T07:45:45;3.60;99.90
12926;DHT22;6529;50.566;9.774;2023-04-06T07:48:11;3.80;99.90
12926;DHT22;6529;50.566;9.774;2023-04-06T07:50:36;3.90;99.90
12926;DHT22;6529;50.566;9.774;2023-04-06T07:53:02;4.00;99.90
12926;DHT22;6529;50.566;9.774;2023-04-06T07:55:28;4.20;99.90
12926;DHT22;6529;50.566;9.774;2023-04-06T07:57:53;4.40;99.90
12926;DHT22;6529;50.566;9.774;2023-04-06T08:00:19;4.50;99.90
12926;DHT22;6529;50.566;9.774;2023-04-06T08:02:45;4.70;99.90
12926;DHT22;6529;50.566;9.774;2023-04-06T08:05:11;4.80;99.90
12926;DHT22;6529;50.566;9.774;2023-04-06T08:07:36;5.10;99.90
12926;DHT22;6529;50.566;9.774;2023-04-06T08:10:02;5.30;99.90
12926;DHT22;6529;50.566;9.774;2023-04-06T08:12:28;5.40;99.90
12926;DHT22;6529;50.566;9.774;2023-04-06T08:14:54;5.60;99.90
12926;DHT22;6529;50.566;9.774;2023-04-06T08:17:19;5.80;99.90
12926;DHT22;6529;50.566;9.774;2023-04-06T08:19:45;6.00;99.90
12926;DHT22;6529;50.566;9.774;2023-04-06T08:22:11;6.20;99.90
12926;DHT22;6529;50.566;9.774;2023-04-06T08:24:37;6.40;99.90
12926;DHT22;6529;50.566;9.774;2023-04-06T08:27:02;6.60;99.90
12926;DHT22;6529;50.566;9.774;2023-04-06T08:29:28;7.00;71.40
12926;DHT22;6529;50.566;9.774;2023-04-06T08:31:54;7.30;74.90
12926;DHT22;6529;50.566;9.774;2023-04-06T08:34:20;7.50;55.80
12926;DHT22;6529;50.566;9.774;2023-04-06T08:36:46;7.70;51.70
12926;DHT22;6529;50.566;9.774;2023-04-06T08:39:12;7.90;51.90
12926;DHT22;6529;50.566;9.774;2023-04-06T08:41:37;8.00;46.40
12926;DHT22;6529;50.566;9.774;2023-04-06T08:44:03;8.10;47.60
12926;DHT22;6529;50.566;9.774;2023-04-06T08:46:31;8.20;41.70
12926;DHT22;6529;50.566;9.774;2023-04-06T08:48:57;8.40;35.00
12926;DHT22;6529;50.566;9.774;2023-04-06T08:51:24;8.40;33.20
12926;DHT22;6529;50.566;9.774;2023-04-06T08:53:53;8.50;34.70
12926;DHT22;6529;50.566;9.774;2023-04-06T08:56:25;8.60;32.10
12926;DHT22;6529;50.566;9.774;2023-04-06T08:58:52;8.70;25.70
12926;DHT22;6529;50.566;9.774;2023-04-06T09:01:21;8.80;24.60
12926;DHT22;6529;50.566;9.774;2023-04-06T09:03:49;8.80;22.10
12926;DHT22;6529;50.566;9.774;2023-04-06T09:06:16;8.90;22.40
12926;DHT22;6529;50.566;9.774;2023-04-06T09:08:42;9.00;22.30
12926;DHT22;6529;50.566;9.774;2023-04-06T09:11:08;9.30;21.30
12926;DHT22;6529;50.566;9.774;2023-04-06T09:13:58;9.50;21.60
12926;DHT22;6529;50.566;9.774;2023-04-06T09:16:24;9.60;18.70
12926;DHT22;6529;50.566;9.774;2023-04-06T09:18:51;9.70;19.70
12926;DHT22;6529;50.566;9.774;2023-04-06T09:21:18;9.60;17.60
12926;DHT22;6529;50.566;9.774;2023-04-06T09:23:45;9.80;20.40
12926;DHT22;6529;50.566;9.774;2023-04-06T09:26:15;9.90;15.80
12926;DHT22;6529;50.566;9.774;2023-04-06T09:28:53;9.90;12.60
12926;DHT22;6529;50.566;9.774;2023-04-06T09:31:23;9.80;12.90
12926;DHT22;6529;50.566;9.774;2023-04-06T09:33:49;9.90;11.30
12926;DHT22;6529;50.566;9.774;2023-04-06T09:36:15;10.00;12.90
12926;DHT22;6529;50.566;9.774;2023-04-06T09:38:55;10.00;11.00
12926;DHT22;6529;50.566;9.774;2023-04-06T09:41:32;10.20;14.00
12926;DHT22;6529;50.566;9.774;2023-04-06T09:44:03;10.50;13.30
12926;DHT22;6529;50.566;9.774;2023-04-06T09:46:32;10.60;11.40
12926;DHT22;6529;50.566;9.774;2023-04-06T09:49:00;10.80;10.20
12926;DHT22;6529;50.566;9.774;2023-04-06T09:54:29;10.80;8.30
12926;DHT22;6529;50.566;9.774;2023-04-06T09:57:07;10.80;7.80
12926;DHT22;6529;50.566;9.774;2023-04-06T10:02:46;11.10;12.40
12926;DHT22;6529;50.566;9.774;2023-04-06T10:05:22;11.10;8.60
12926;DHT22;6529;50.566;9.774;2023-04-06T10:07:54;11.00;6.80
12926;DHT22;6529;50.566;9.774;2023-04-06T10:10:21;11.00;6.70
12926;DHT22;6529;50.566;9.774;2023-04-06T10:12:48;11.20;5.20
12926;DHT22;6529;50.566;9.774;2023-04-06T10:15:15;11.40;7.70
12926;DHT22;6529;50.566;9.774;2023-04-06T10:17:41;11.60;6.60
12926;DHT22;6529;50.566;9.774;2023-04-06T10:20:10;11.50;4.10
12926;DHT22;6529;50.566;9.774;2023-04-06T10:22:45;11.50;7.60
12926;DHT22;6529;50.566;9.774;2023-04-06T10:25:27;11.50;2.20
12926;DHT22;6529;50.566;9.774;2023-04-06T10:27:59;11.70;4.00
12926;DHT22;6529;50.566;9.774;2023-04-06T10:30:25;11.40;2.50
12926;DHT22;6529;50.566;9.774;2023-04-06T10:32:51;11.30;2.00
12926;DHT22;6529;50.566;9.774;2023-04-06T10:35:17;11.30;3.90
12926;DHT22;6529;50.566;9.774;2023-04-06T10:38:03;11.40;2.00
12926;DHT22;6529;50.566;9.774;2023-04-06T10:40:28;11.60;3.80
12926;DHT22;6529;50.566;9.774;2023-04-06T10:42:55;11.80;2.30
12926;DHT22;6529;50.566;9.774;2023-04-06T10:45:25;12.20;24.80
12926;DHT22;6529;50.566;9.774;2023-04-06T10:47:55;12.40;8.30
12926;DHT22;6529;50.566;9.774;2023-04-06T10:50:21;12.50;9.60
12926;DHT22;6529;50.566;9.774;2023-04-06T10:53:01;12.40;5.20
12926;DHT22;6529;50.566;9.774;2023-04-06T10:55:28;12.40;6.60
12926;DHT22;6529;50.566;9.774;2023-04-06T10:57:54;12.50;8.20
12926;DHT22;6529;50.566;9.774;2023-04-06T11:00:20;12.80;2.90
12926;DHT22;6529;50.566;9.774;2023-04-06T11:02:46;12.80;5.10
12926;DHT22;6529;50.566;9.774;2023-04-06T11:05:12;12.80;5.90
12926;DHT22;6529;50.566;9.774;2023-04-06T11:07:41;13.10;13.10
12926;DHT22;6529;50.566;9.774;2023-04-06T11:10:07;13.00;6.10
12926;DHT22;6529;50.566;9.774;2023-04-06T11:12:33;13.50;16.30
12926;DHT22;6529;50.566;9.774;2023-04-06T11:15:03;13.50;6.10
12926;DHT22;6529;50.566;9.774;2023-04-06T11:17:34;13.50;2.00
12926;DHT22;6529;50.566;9.774;2023-04-06T11:20:02;13.30;2.90
12926;DHT22;6529;50.566;9.774;2023-04-06T11:22:28;13.40;3.10
12926;DHT22;6529;50.566;9.774;2023-04-06T11:25:05;13.50;6.30
12926;DHT22;6529;50.566;9.774;2023-04-06T11:27:31;13.60;1.40
12926;DHT22;6529;50.566;9.774;2023-04-06T11:29:58;13.60;3.20
12926;DHT22;6529;50.566;9.774;2023-04-06T11:32:24;13.70;3.30
12926;DHT22;6529;50.566;9.774;2023-04-06T11:34:50;13.80;1.00
12926;DHT22;6529;50.566;9.774;2023-04-06T11:37:15;13.90;1.00
12926;DHT22;6529;50.566;9.774;2023-04-06T11:39:52;13.90;1.00
12926;DHT22;6529;50.566;9.774;2023-04-06T11:42:25;13.80;1.00
12926;DHT22;6529;50.566;9.774;2023-04-06T11:44:55;13.60;1.00
12926;DHT22;6529;50.566;9.774;2023-04-06T11:47:31;13.80;1.00
12926;DHT22;6529;50.566;9.774;2023-04-06T11:50:12;14.00;1.00
12926;DHT22;6529;50.566;9.774;2023-04-06T11:52:39;13.70;1.00
12926;DHT22;6529;50.566;9.774;2023-04-06T11:55:18;13.70;1.00
12926;DHT22;6529;50.566;9.774;2023-04-06T11:57:44;13.70;1.00
12926;DHT22;6529;50.566;9.774;2023-04-06T12:00:11;13.70;1.00
12926;DHT22;6529;50.566;9.774;2023-04-06T12:02:38;13.70;1.00
12926;DHT22;6529;50.566;9.774;2023-04-06T12:05:05;13.90;1.00
12926;DHT22;6529;50.566;9.774;2023-04-06T12:07:31;13.80;1.00
12926;DHT22;6529;50.566;9.774;2023-04-06T12:10:02;14.20;1.10
12926;DHT22;6529;50.566;9.774;2023-04-06T12:12:28;14.50;1.00
12926;DHT22;6529;50.566;9.774;2023-04-06T12:14:54;14.60;1.00
12926;DHT22;6529;50.566;9.774;2023-04-06T12:17:20;14.40;1.00
12926;DHT22;6529;50.566;9.774;2023-04-06T12:19:46;14.50;1.00
12926;DHT22;6529;50.566;9.774;2023-04-06T12:22:11;14.60;1.00
12926;DHT22;6529;50.566;9.774;2023-04-06T12:24:37;14.90;1.00
12926;DHT22;6529;50.566;9.774;2023-04-06T12:27:03;15.10;1.00
12926;DHT22;6529;50.566;9.774;2023-04-06T12:29:28;14.90;1.00
12926;DHT22;6529;50.566;9.774;2023-04-06T12:31:54;14.40;1.00
12926;DHT22;6529;50.566;9.774;2023-04-06T12:34:20;14.20;1.00
12926;DHT22;6529;50.566;9.774;2023-04-06T12:36:46;14.20;1.00
12926;DHT22;6529;50.566;9.774;2023-04-06T12:39:11;14.00;1.00
12926;DHT22;6529;50.566;9.774;2023-04-06T12:41:37;14.20;1.00
12926;DHT22;6529;50.566;9.774;2023-04-06T12:44:05;14.20;1.00
12926;DHT22;6529;50.566;9.774;2023-04-06T12:46:31;14.20;1.00
12926;DHT22;6529;50.566;9.774;2023-04-06T12:48:57;14.50;1.00
12926;DHT22;6529;50.566;9.774;2023-04-06T12:51:26;14.70;1.00
12926;DHT22;6529;50.566;9.774;2023-04-06T12:53:53;14.60;1.00
12926;DHT22;6529;50.566;9.774;2023-04-06T12:56:19;14.50;1.00
12926;DHT22;6529;50.566;9.774;2023-04-06T12:58:46;14.40;1.00
12926;DHT22;6529;50.566;9.774;2023-04-06T13:01:12;14.70;1.00
12926;DHT22;6529;50.566;9.774;2023-04-06T13:03:39;14.60;1.00
12926;DHT22;6529;50.566;9.774;2023-04-06T13:06:05;14.90;1.00
12926;DHT22;6529;50.566;9.774;2023-04-06T13:08:31;15.20;1.00
12926;DHT22;6529;50.566;9.774;2023-04-06T13:10:57;15.40;1.00
12926;DHT22;6529;50.566;9.774;2023-04-06T13:13:27;15.10;1.00
12926;DHT22;6529;50.566;9.774;2023-04-06T13:15:54;15.20;1.00
12926;DHT22;6529;50.566;9.774;2023-04-06T13:18:21;15.70;1.00
12926;DHT22;6529;50.566;9.774;2023-04-06T13:20:48;15.60;1.00
12926;DHT22;6529;50.566;9.774;2023-04-06T13:23:14;15.70;1.00
12926;DHT22;6529;50.566;9.774;2023-04-06T13:25:40;16.10;1.00
12926;DHT22;6529;50.566;9.774;2023-04-06T13:28:05;15.90;1.00
12926;DHT22;6529;50.566;9.774;2023-04-06T13:30:31;15.70;1.00
12926;DHT22;6529;50.566;9.774;2023-04-06T13:32:57;16.00;1.00
12926;DHT22;6529;50.566;9.774;2023-04-06T13:35:22;15.90;1.00
12926;DHT22;6529;50.566;9.774;2023-04-06T13:37:48;15.80;1.00
12926;DHT22;6529;50.566;9.774;2023-04-06T13:40:14;15.60;1.00
12926;DHT22;6529;50.566;9.774;2023-04-06T13:42:40;15.30;1.00
12926;DHT22;6529;50.566;9.774;2023-04-06T13:45:07;15.60;1.00
12926;DHT22;6529;50.566;9.774;2023-04-06T13:47:33;16.00;1.00
12926;DHT22;6529;50.566;9.774;2023-04-06T13:49:59;16.30;1.00
12926;DHT22;6529;50.566;9.774;2023-04-06T13:52:25;16.10;1.00
12926;DHT22;6529;50.566;9.774;2023-04-06T13:54:51;16.00;1.00
12926;DHT22;6529;50.566;9.774;2023-04-06T13:57:16;16.20;1.00
12926;DHT22;6529;50.566;9.774;2023-04-06T13:59:42;16.40;1.00
12926;DHT22;6529;50.566;9.774;2023-04-06T14:02:09;16.30;1.00
12926;DHT22;6529;50.566;9.774;2023-04-06T14:04:35;16.40;1.00
12926;DHT22;6529;50.566;9.774;2023-04-06T14:07:02;16.50;1.00
12926;DHT22;6529;50.566;9.774;2023-04-06T14:09:28;16.40;1.00
12926;DHT22;6529;50.566;9.774;2023-04-06T14:11:54;16.20;1.00
12926;DHT22;6529;50.566;9.774;2023-04-06T14:14:20;16.00;1.00
12926;DHT22;6529;50.566;9.774;2023-04-06T14:16:46;15.80;1.00
12926;DHT22;6529;50.566;9.774;2023-04-06T14:19:14;15.20;1.00
12926;DHT22;6529;50.566;9.774;2023-04-06T14:21:41;14.90;1.00
12926;DHT22;6529;50.566;9.774;2023-04-06T14:24:07;14.60;1.00
12926;DHT22;6529;50.566;9.774;2023-04-06T14:26:37;14.40;1.00
12926;DHT22;6529;50.566;9.774;2023-04-06T14:29:03;14.80;1.00
12926;DHT22;6529;50.566;9.774;2023-04-06T14:31:30;15.50;1.00
12926;DHT22;6529;50.566;9.774;2023-04-06T14:33:56;15.80;1.00
12926;DHT22;6529;50.566;9.774;2023-04-06T14:36:22;16.00;1.00
12926;DHT22;6529;50.566;9.774;2023-04-06T14:38:48;15.50;1.00
12926;DHT22;6529;50.566;9.774;2023-04-06T14:41:18;15.10;1.00
12926;DHT22;6529;50.566;9.774;2023-04-06T14:43:45;14.90;1.00
12926;DHT22;6529;50.566;9.774;2023-04-06T14:46:11;15.00;1.00
12926;DHT22;6529;50.566;9.774;2023-04-06T14:48:36;15.20;1.00
12926;DHT22;6529;50.566;9.774;2023-04-06T14:51:02;15.30;1.00
12926;DHT22;6529;50.566;9.774;2023-04-06T14:53:28;15.20;1.00
12926;DHT22;6529;50.566;9.774;2023-04-06T14:55:54;15.00;1.00
12926;DHT22;6529;50.566;9.774;2023-04-06T14:58:20;14.80;1.00
12926;DHT22;6529;50.566;9.774;2023-04-06T15:00:46;15.10;1.00
12926;DHT22;6529;50.566;9.774;2023-04-06T15:03:12;15.60;1.00
12926;DHT22;6529;50.566;9.774;2023-04-06T15:05:37;15.70;1.00
12926;DHT22;6529;50.566;9.774;2023-04-06T15:08:03;15.30;1.00
12926;DHT22;6529;50.566;9.774;2023-04-06T15:10:34;15.00;1.00
12926;DHT22;6529;50.566;9.774;2023-04-06T15:12:59;15.10;1.00
12926;DHT22;6529;50.566;9.774;2023-04-06T15:15:25;14.60;1.00
12926;DHT22;6529;50.566;9.774;2023-04-06T15:17:51;14.70;1.00
12926;DHT22;6529;50.566;9.774;2023-04-06T15:20:16;14.40;1.00
12926;DHT22;6529;50.566;9.774;2023-04-06T15:22:42;14.40;1.00
12926;DHT22;6529;50.566;9.774;2023-04-06T15:25:08;14.50;1.00
12926;DHT22;6529;50.566;9.774;2023-04-06T15:27:33;14.70;1.00
12926;DHT22;6529;50.566;9.774;2023-04-06T15:29:59;14.90;1.00
12926;DHT22;6529;50.566;9.774;2023-04-06T15:32:25;14.70;1.00
12926;DHT22;6529;50.566;9.774;2023-04-06T15:34:52;14.90;1.00
12926;DHT22;6529;50.566;9.774;2023-04-06T15:37:18;14.80;1.00
12926;DHT22;6529;50.566;9.774;2023-04-06T15:39:44;14.70;1.00
12926;DHT22;6529;50.566;9.774;2023-04-06T15:42:09;14.60;1.00
12926;DHT22;6529;50.566;9.774;2023-04-06T15:44:35;14.60;1.00
12926;DHT22;6529;50.566;9.774;2023-04-06T15:47:00;14.50;1.00
12926;DHT22;6529;50.566;9.774;2023-04-06T15:49:26;14.70;1.00
12926;DHT22;6529;50.566;9.774;2023-04-06T15:51:52;14.70;1.00
12926;DHT22;6529;50.566;9.774;2023-04-06T15:54:17;14.70;1.00
12926;DHT22;6529;50.566;9.774;2023-04-06T15:56:45;14.80;1.00
12926;DHT22;6529;50.566;9.774;2023-04-06T15:59:11;14.50;1.00